sensor_id;sensor_type;location;lat;lon;timestamp;P1;durP1;ratioP1;P2;durP2;ratioP2
17169;SDS011;8700;48.222;16.342;2023-12-07T00:00:06;29.57;;;26.27;;
17169;SDS011;8700;48.222;16.342;2023-12-07T00:03:30;29.73;;;26.70;;
17169;SDS011;8700;48.222;16.342;2023-12-07T00:06:51;32.13;;;26.23;;
17169;SDS011;8700;48.222;16.342;2023-12-07T00:10:12;27.53;;;24.60;;
17169;SDS011;8700;48.222;16.342;2023-12-07T00:13:34;26.63;;;23.83;;
17169;SDS011;8700;48.222;16.342;2023-12-07T00:16:55;26.67;;;23.17;;
17169;SDS011;8700;48.222;16.342;2023-12-07T00:20:18;26.80;;;22.43;;
17169;SDS011;8700;48.222;16.342;2023-12-07T00:23:39;24.70;;;21.23;;
17169;SDS011;8700;48.222;16.342;2023-12-07T00:27:00;23.90;;;21.57;;
17169;SDS011;8700;48.222;16.342;2023-12-07T00:30:21;21.43;;;19.10;;
17169;SDS011;8700;48.222;16.342;2023-12-07T00:33:42;23.27;;;20.83;;
17169;SDS011;8700;48.222;16.342;2023-12-07T00:37:05;23.93;;;21.07;;
17169;SDS011;8700;48.222;16.342;2023-12-07T00:40:27;23.60;;;21.20;;
17169;SDS011;8700;48.222;16.342;2023-12-07T00:43:48;23.77;;;21.27;;
17169;SDS011;8700;48.222;16.342;2023-12-07T00:47:09;25.17;;;22.67;;
17169;SDS011;8700;48.222;16.342;2023-12-07T00:50:30;23.63;;;21.03;;
17169;SDS011;8700;48.222;16.342;2023-12-07T00:53:52;22.90;;;20.60;;
17169;SDS011;8700;48.222;16.342;2023-12-07T00:57:14;23.90;;;21.50;;
17169;SDS011;8700;48.222;16.342;2023-12-07T01:00:34;23.13;;;20.10;;
17169;SDS011;8700;48.222;16.342;2023-12-07T01:03:56;21.83;;;18.10;;
17169;SDS011;8700;48.222;16.342;2023-12-07T01:07:17;21.27;;;19.13;;
17169;SDS011;8700;48.222;16.342;2023-12-07T01:10:40;21.80;;;19.40;;
17169;SDS011;8700;48.222;16.342;2023-12-07T01:14:01;23.43;;;20.93;;
17169;SDS011;8700;48.222;16.342;2023-12-07T01:17:22;19.13;;;17.13;;
17169;SDS011;8700;48.222;16.342;2023-12-07T01:20:43;22.90;;;20.50;;
17169;SDS011;8700;48.222;16.342;2023-12-07T01:24:05;21.83;;;19.53;;
17169;SDS011;8700;48.222;16.342;2023-12-07T01:27:28;22.60;;;20.20;;
17169;SDS011;8700;48.222;16.342;2023-12-07T01:30:49;21.73;;;18.57;;
17169;SDS011;8700;48.222;16.342;2023-12-07T01:34:10;21.83;;;19.53;;
17169;SDS011;8700;48.222;16.342;2023-12-07T01:37:31;22.80;;;20.50;;
17169;SDS011;8700;48.222;16.342;2023-12-07T01:40:52;22.53;;;20.30;;
17169;SDS011;8700;48.222;16.342;2023-12-07T01:44:15;21.50;;;19.27;;
17169;SDS011;8700;48.222;16.342;2023-12-07T01:47:35;22.03;;;19.83;;
17169;SDS011;8700;48.222;16.342;2023-12-07T01:50:58;18.53;;;16.57;;
17169;SDS011;8700;48.222;16.342;2023-12-07T01:54:19;20.70;;;18.57;;
17169;SDS011;8700;48.222;16.342;2023-12-07T01:57:41;20.67;;;18.40;;
17169;SDS011;8700;48.222;16.342;2023-12-07T02:01:05;19.53;;;17.47;;
17169;SDS011;8700;48.222;16.342;2023-12-07T02:04:26;20.63;;;18.53;;
17169;SDS011;8700;48.222;16.342;2023-12-07T02:07:48;19.67;;;17.67;;
17169;SDS011;8700;48.222;16.342;2023-12-07T02:11:09;19.57;;;17.53;;
17169;SDS011;8700;48.222;16.342;2023-12-07T02:14:30;20.60;;;17.70;;
17169;SDS011;8700;48.222;16.342;2023-12-07T02:17:57;19.13;;;17.20;;
17169;SDS011;8700;48.222;16.342;2023-12-07T02:21:25;17.47;;;15.77;;
17169;SDS011;8700;48.222;16.342;2023-12-07T02:24:54;18.40;;;16.63;;
17169;SDS011;8700;48.222;16.342;2023-12-07T02:28:25;19.53;;;17.53;;
17169;SDS011;8700;48.222;16.342;2023-12-07T02:31:47;18.50;;;16.50;;
17169;SDS011;8700;48.222;16.342;2023-12-07T02:35:08;17.57;;;15.77;;
17169;SDS011;8700;48.222;16.342;2023-12-07T02:38:31;18.57;;;16.47;;
17169;SDS011;8700;48.222;16.342;2023-12-07T02:41:53;18.77;;;16.93;;
17169;SDS011;8700;48.222;16.342;2023-12-07T02:45:17;18.37;;;16.57;;
17169;SDS011;8700;48.222;16.342;2023-12-07T02:48:38;18.07;;;16.27;;
17169;SDS011;8700;48.222;16.342;2023-12-07T02:51:59;19.40;;;17.33;;
17169;SDS011;8700;48.222;16.342;2023-12-07T02:55:20;18.80;;;16.90;;
17169;SDS011;8700;48.222;16.342;2023-12-07T02:58:41;17.40;;;15.73;;
17169;SDS011;8700;48.222;16.342;2023-12-07T03:02:04;18.07;;;16.27;;
17169;SDS011;8700;48.222;16.342;2023-12-07T03:05:25;18.80;;;16.90;;
17169;SDS011;8700;48.222;16.342;2023-12-07T03:08:46;18.10;;;16.30;;
17169;SDS011;8700;48.222;16.342;2023-12-07T03:12:07;17.40;;;15.57;;
17169;SDS011;8700;48.222;16.342;2023-12-07T03:15:28;19.20;;;17.20;;
17169;SDS011;8700;48.222;16.342;2023-12-07T03:18:51;18.20;;;16.40;;
17169;SDS011;8700;48.222;16.342;2023-12-07T03:22:12;18.17;;;16.27;;
17169;SDS011;8700;48.222;16.342;2023-12-07T03:25:33;17.73;;;15.83;;
17169;SDS011;8700;48.222;16.342;2023-12-07T03:28:54;17.67;;;15.87;;
17169;SDS011;8700;48.222;16.342;2023-12-07T03:32:16;16.87;;;15.17;;
17169;SDS011;8700;48.222;16.342;2023-12-07T03:35:38;17.40;;;15.67;;
17169;SDS011;8700;48.222;16.342;2023-12-07T03:38:59;16.83;;;14.00;;
17169;SDS011;8700;48.222;16.342;2023-12-07T03:42:22;15.50;;;14.00;;
17169;SDS011;8700;48.222;16.342;2023-12-07T03:45:43;16.10;;;13.77;;
17169;SDS011;8700;48.222;16.342;2023-12-07T03:49:04;17.03;;;15.27;;
17169;SDS011;8700;48.222;16.342;2023-12-07T03:52:27;16.13;;;14.53;;
17169;SDS011;8700;48.222;16.342;2023-12-07T03:55:48;17.17;;;15.37;;
17169;SDS011;8700;48.222;16.342;2023-12-07T03:59:09;15.03;;;13.23;;
17169;SDS011;8700;48.222;16.342;2023-12-07T04:02:30;15.33;;;13.23;;
17169;SDS011;8700;48.222;16.342;2023-12-07T04:05:53;14.73;;;13.17;;
17169;SDS011;8700;48.222;16.342;2023-12-07T04:09:15;14.77;;;13.27;;
17169;SDS011;8700;48.222;16.342;2023-12-07T04:12:37;16.20;;;13.87;;
17169;SDS011;8700;48.222;16.342;2023-12-07T04:15:58;18.90;;;16.10;;
17169;SDS011;8700;48.222;16.342;2023-12-07T04:19:19;14.03;;;12.63;;
17169;SDS011;8700;48.222;16.342;2023-12-07T04:22:41;15.87;;;13.80;;
17169;SDS011;8700;48.222;16.342;2023-12-07T04:26:06;15.80;;;14.17;;
17169;SDS011;8700;48.222;16.342;2023-12-07T04:29:27;14.50;;;12.60;;
17169;SDS011;8700;48.222;16.342;2023-12-07T04:32:48;14.43;;;12.90;;
17169;SDS011;8700;48.222;16.342;2023-12-07T04:36:09;17.63;;;15.43;;
17169;SDS011;8700;48.222;16.342;2023-12-07T04:39:31;16.67;;;14.97;;
17169;SDS011;8700;48.222;16.342;2023-12-07T04:42:53;16.97;;;15.23;;
17169;SDS011;8700;48.222;16.342;2023-12-07T04:46:15;11.17;;;10.00;;
17169;SDS011;8700;48.222;16.342;2023-12-07T04:49:36;13.17;;;11.80;;
17169;SDS011;8700;48.222;16.342;2023-12-07T04:52:57;16.77;;;15.07;;
17169;SDS011;8700;48.222;16.342;2023-12-07T04:56:18;11.60;;;9.63;;
17169;SDS011;8700;48.222;16.342;2023-12-07T04:59:41;11.70;;;10.47;;
17169;SDS011;8700;48.222;16.342;2023-12-07T05:03:05;14.70;;;13.17;;
17169;SDS011;8700;48.222;16.342;2023-12-07T05:06:27;15.83;;;14.17;;
17169;SDS011;8700;48.222;16.342;2023-12-07T05:09:48;13.90;;;12.37;;
17169;SDS011;8700;48.222;16.342;2023-12-07T05:13:10;15.73;;;14.13;;
17169;SDS011;8700;48.222;16.342;2023-12-07T05:16:32;16.37;;;14.67;;
17169;SDS011;8700;48.222;16.342;2023-12-07T05:19:54;15.93;;;14.33;;
17169;SDS011;8700;48.222;16.342;2023-12-07T05:23:15;14.27;;;12.23;;
17169;SDS011;8700;48.222;16.342;2023-12-07T05:26:36;13.90;;;12.50;;
17169;SDS011;8700;48.222;16.342;2023-12-07T05:29:59;11.50;;;10.33;;
17169;SDS011;8700;48.222;16.342;2023-12-07T05:33:22;14.83;;;13.23;;
17169;SDS011;8700;48.222;16.342;2023-12-07T05:36:44;14.03;;;12.57;;
17169;SDS011;8700;48.222;16.342;2023-12-07T05:40:06;12.27;;;10.63;;
17169;SDS011;8700;48.222;16.342;2023-12-07T05:43:27;15.07;;;13.60;;
17169;SDS011;8700;48.222;16.342;2023-12-07T05:46:49;15.37;;;13.83;;
17169;SDS011;8700;48.222;16.342;2023-12-07T05:50:11;16.63;;;14.33;;
17169;SDS011;8700;48.222;16.342;2023-12-07T05:53:33;11.23;;;10.07;;
17169;SDS011;8700;48.222;16.342;2023-12-07T05:56:54;15.93;;;13.90;;
17169;SDS011;8700;48.222;16.342;2023-12-07T06:00:15;17.13;;;14.70;;
17169;SDS011;8700;48.222;16.342;2023-12-07T06:03:38;21.97;;;20.00;;
17169;SDS011;8700;48.222;16.342;2023-12-07T06:07:00;20.47;;;18.33;;
17169;SDS011;8700;48.222;16.342;2023-12-07T06:10:21;18.83;;;16.93;;
17169;SDS011;8700;48.222;16.342;2023-12-07T06:13:43;18.50;;;16.03;;
17169;SDS011;8700;48.222;16.342;2023-12-07T06:17:04;19.43;;;17.60;;
17169;SDS011;8700;48.222;16.342;2023-12-07T06:20:27;18.73;;;15.77;;
17169;SDS011;8700;48.222;16.342;2023-12-07T06:23:49;19.43;;;17.23;;
17169;SDS011;8700;48.222;16.342;2023-12-07T06:27:12;20.10;;;18.00;;
17169;SDS011;8700;48.222;16.342;2023-12-07T06:30:33;22.57;;;20.20;;
17169;SDS011;8700;48.222;16.342;2023-12-07T06:33:55;20.87;;;18.53;;
17169;SDS011;8700;48.222;16.342;2023-12-07T06:37:15;20.50;;;18.40;;
17169;SDS011;8700;48.222;16.342;2023-12-07T06:40:38;22.27;;;19.37;;
17169;SDS011;8700;48.222;16.342;2023-12-07T06:43:59;20.13;;;17.70;;
17169;SDS011;8700;48.222;16.342;2023-12-07T06:47:20;23.83;;;21.27;;
17169;SDS011;8700;48.222;16.342;2023-12-07T06:50:41;20.97;;;18.77;;
17169;SDS011;8700;48.222;16.342;2023-12-07T06:54:03;16.17;;;14.17;;
17169;SDS011;8700;48.222;16.342;2023-12-07T06:57:25;18.37;;;15.70;;
17169;SDS011;8700;48.222;16.342;2023-12-07T07:00:47;17.40;;;13.00;;
17169;SDS011;8700;48.222;16.342;2023-12-07T07:04:08;18.60;;;15.50;;
17169;SDS011;8700;48.222;16.342;2023-12-07T07:07:29;19.23;;;15.27;;
17169;SDS011;8700;48.222;16.342;2023-12-07T07:10:50;16.83;;;15.03;;
17169;SDS011;8700;48.222;16.342;2023-12-07T07:14:13;17.70;;;15.47;;
17169;SDS011;8700;48.222;16.342;2023-12-07T07:17:34;16.13;;;13.43;;
17169;SDS011;8700;48.222;16.342;2023-12-07T07:20:56;17.60;;;15.90;;
17169;SDS011;8700;48.222;16.342;2023-12-07T07:24:17;18.13;;;16.13;;
17169;SDS011;8700;48.222;16.342;2023-12-07T07:27:38;17.07;;;15.37;;
17169;SDS011;8700;48.222;16.342;2023-12-07T07:31:00;15.47;;;13.83;;
17169;SDS011;8700;48.222;16.342;2023-12-07T07:34:22;13.40;;;12.00;;
17169;SDS011;8700;48.222;16.342;2023-12-07T07:37:44;15.53;;;13.90;;
17169;SDS011;8700;48.222;16.342;2023-12-07T07:41:05;16.33;;;14.63;;
17169;SDS011;8700;48.222;16.342;2023-12-07T07:44:26;19.00;;;16.87;;
17169;SDS011;8700;48.222;16.342;2023-12-07T07:47:49;22.30;;;20.07;;
17169;SDS011;8700;48.222;16.342;2023-12-07T07:51:10;19.83;;;17.23;;
17169;SDS011;8700;48.222;16.342;2023-12-07T07:54:31;17.80;;;12.33;;
17169;SDS011;8700;48.222;16.342;2023-12-07T07:57:52;17.67;;;15.93;;
17169;SDS011;8700;48.222;16.342;2023-12-07T08:01:13;18.07;;;16.27;;
17169;SDS011;8700;48.222;16.342;2023-12-07T08:04:35;18.00;;;16.00;;
17169;SDS011;8700;48.222;16.342;2023-12-07T08:07:57;17.23;;;15.43;;
17169;SDS011;8700;48.222;16.342;2023-12-07T08:11:18;18.87;;;16.97;;
17169;SDS011;8700;48.222;16.342;2023-12-07T08:14:39;19.13;;;17.17;;
17169;SDS011;8700;48.222;16.342;2023-12-07T08:18:02;20.73;;;18.70;;
17169;SDS011;8700;48.222;16.342;2023-12-07T08:21:26;24.13;;;20.10;;
17169;SDS011;8700;48.222;16.342;2023-12-07T08:24:48;19.07;;;17.07;;
17169;SDS011;8700;48.222;16.342;2023-12-07T08:28:10;19.60;;;17.60;;
17169;SDS011;8700;48.222;16.342;2023-12-07T08:31:31;22.60;;;18.50;;
17169;SDS011;8700;48.222;16.342;2023-12-07T08:34:53;19.17;;;15.63;;
17169;SDS011;8700;48.222;16.342;2023-12-07T08:38:16;17.93;;;15.87;;
17169;SDS011;8700;48.222;16.342;2023-12-07T08:41:37;22.73;;;15.43;;
17169;SDS011;8700;48.222;16.342;2023-12-07T08:44:58;20.10;;;16.60;;
17169;SDS011;8700;48.222;16.342;2023-12-07T08:48:19;15.27;;;13.07;;
17169;SDS011;8700;48.222;16.342;2023-12-07T08:51:40;20.00;;;17.90;;
17169;SDS011;8700;48.222;16.342;2023-12-07T08:55:04;23.37;;;20.97;;
17169;SDS011;8700;48.222;16.342;2023-12-07T08:58:25;21.57;;;16.37;;
17169;SDS011;8700;48.222;16.342;2023-12-07T09:01:47;12.47;;;11.23;;
17169;SDS011;8700;48.222;16.342;2023-12-07T09:05:08;19.37;;;15.57;;
17169;SDS011;8700;48.222;16.342;2023-12-07T09:08:29;20.43;;;18.33;;
17169;SDS011;8700;48.222;16.342;2023-12-07T09:11:52;19.63;;;16.20;;
17169;SDS011;8700;48.222;16.342;2023-12-07T09:15:13;21.47;;;19.13;;
17169;SDS011;8700;48.222;16.342;2023-12-07T09:18:34;35.07;;;25.93;;
17169;SDS011;8700;48.222;16.342;2023-12-07T09:21:56;37.00;;;29.03;;
17169;SDS011;8700;48.222;16.342;2023-12-07T09:25:17;20.83;;;18.70;;
17169;SDS011;8700;48.222;16.342;2023-12-07T09:28:40;24.50;;;21.90;;
17169;SDS011;8700;48.222;16.342;2023-12-07T09:32:01;18.50;;;16.50;;
17169;SDS011;8700;48.222;16.342;2023-12-07T09:35:23;22.40;;;20.23;;
17169;SDS011;8700;48.222;16.342;2023-12-07T09:38:43;24.17;;;20.67;;
17169;SDS011;8700;48.222;16.342;2023-12-07T09:42:05;21.00;;;18.50;;
17169;SDS011;8700;48.222;16.342;2023-12-07T09:45:27;22.07;;;19.90;;
17169;SDS011;8700;48.222;16.342;2023-12-07T09:48:49;21.40;;;19.10;;
17169;SDS011;8700;48.222;16.342;2023-12-07T09:52:10;20.50;;;18.33;;
17169;SDS011;8700;48.222;16.342;2023-12-07T09:55:31;17.60;;;15.90;;
17169;SDS011;8700;48.222;16.342;2023-12-07T09:58:52;16.97;;;15.33;;
17169;SDS011;8700;48.222;16.342;2023-12-07T10:02:15;17.83;;;15.93;;
17169;SDS011;8700;48.222;16.342;2023-12-07T10:09:16;16.40;;;14.80;;
17169;SDS011;8700;48.222;16.342;2023-12-07T10:12:44;16.93;;;15.23;;
17169;SDS011;8700;48.222;16.342;2023-12-07T10:16:08;18.53;;;16.70;;
17169;SDS011;8700;48.222;16.342;2023-12-07T10:19:31;24.50;;;16.57;;
17169;SDS011;8700;48.222;16.342;2023-12-07T10:23:00;17.77;;;16.10;;
17169;SDS011;8700;48.222;16.342;2023-12-07T10:26:22;21.87;;;19.73;;
17169;SDS011;8700;48.222;16.342;2023-12-07T10:29:44;24.03;;;21.73;;
17169;SDS011;8700;48.222;16.342;2023-12-07T10:33:05;15.87;;;14.33;;
17169;SDS011;8700;48.222;16.342;2023-12-07T10:36:28;16.90;;;14.93;;
17169;SDS011;8700;48.222;16.342;2023-12-07T10:39:49;17.97;;;16.10;;
17169;SDS011;8700;48.222;16.342;2023-12-07T10:43:11;14.70;;;13.27;;
17169;SDS011;8700;48.222;16.342;2023-12-07T10:46:33;17.50;;;15.70;;
17169;SDS011;8700;48.222;16.342;2023-12-07T10:49:54;27.63;;;25.13;;
17169;SDS011;8700;48.222;16.342;2023-12-07T10:53:24;19.57;;;17.67;;
17169;SDS011;8700;48.222;16.342;2023-12-07T10:56:49;18.17;;;16.23;;
17169;SDS011;8700;48.222;16.342;2023-12-07T11:00:11;14.97;;;13.37;;
17169;SDS011;8700;48.222;16.342;2023-12-07T11:03:33;20.27;;;18.30;;
17169;SDS011;8700;48.222;16.342;2023-12-07T11:06:56;18.80;;;17.00;;
17169;SDS011;8700;48.222;16.342;2023-12-07T11:10:27;17.03;;;15.43;;
17169;SDS011;8700;48.222;16.342;2023-12-07T11:13:56;17.60;;;16.10;;
17169;SDS011;8700;48.222;16.342;2023-12-07T11:17:20;17.40;;;15.77;;
17169;SDS011;8700;48.222;16.342;2023-12-07T11:20:42;17.42;;;15.93;;
17169;SDS011;8700;48.222;16.342;2023-12-07T11:24:05;17.52;;;15.90;;
17169;SDS011;8700;48.222;16.342;2023-12-07T11:27:30;15.85;;;14.45;;
17169;SDS011;8700;48.222;16.342;2023-12-07T11:30:52;15.77;;;14.38;;
17169;SDS011;8700;48.222;16.342;2023-12-07T11:34:13;17.05;;;15.55;;
17169;SDS011;8700;48.222;16.342;2023-12-07T11:41:21;17.30;;;15.80;;
17169;SDS011;8700;48.222;16.342;2023-12-07T11:44:47;27.38;;;24.38;;
17169;SDS011;8700;48.222;16.342;2023-12-07T11:48:09;20.13;;;18.42;;
17169;SDS011;8700;48.222;16.342;2023-12-07T11:51:31;16.90;;;15.55;;
17169;SDS011;8700;48.222;16.342;2023-12-07T11:54:52;17.08;;;15.65;;
17169;SDS011;8700;48.222;16.342;2023-12-07T11:58:14;14.85;;;13.63;;
17169;SDS011;8700;48.222;16.342;2023-12-07T12:01:37;16.75;;;15.25;;
17169;SDS011;8700;48.222;16.342;2023-12-07T12:04:58;18.55;;;17.02;;
17169;SDS011;8700;48.222;16.342;2023-12-07T12:08:19;16.00;;;14.70;;
17169;SDS011;8700;48.222;16.342;2023-12-07T12:11:43;14.77;;;13.27;;
17169;SDS011;8700;48.222;16.342;2023-12-07T12:15:06;14.27;;;12.88;;
17169;SDS011;8700;48.222;16.342;2023-12-07T12:18:29;16.25;;;14.85;;
17169;SDS011;8700;48.222;16.342;2023-12-07T12:21:50;19.30;;;17.60;;
17169;SDS011;8700;48.222;16.342;2023-12-07T12:25:11;15.50;;;14.00;;
17169;SDS011;8700;48.222;16.342;2023-12-07T12:28:33;16.30;;;14.67;;
17169;SDS011;8700;48.222;16.342;2023-12-07T12:31:59;17.07;;;15.00;;
17169;SDS011;8700;48.222;16.342;2023-12-07T12:35:22;16.17;;;14.57;;
17169;SDS011;8700;48.222;16.342;2023-12-07T12:38:46;15.77;;;14.27;;
17169;SDS011;8700;48.222;16.342;2023-12-07T12:42:07;16.00;;;14.40;;
17169;SDS011;8700;48.222;16.342;2023-12-07T12:45:30;16.77;;;15.07;;
17169;SDS011;8700;48.222;16.342;2023-12-07T12:48:52;22.57;;;20.30;;
17169;SDS011;8700;48.222;16.342;2023-12-07T12:52:16;19.83;;;17.60;;
17169;SDS011;8700;48.222;16.342;2023-12-07T12:55:39;23.13;;;20.63;;
17169;SDS011;8700;48.222;16.342;2023-12-07T12:59:01;18.40;;;16.43;;
17169;SDS011;8700;48.222;16.342;2023-12-07T13:02:22;19.17;;;17.27;;
17169;SDS011;8700;48.222;16.342;2023-12-07T13:05:44;19.00;;;17.00;;
17169;SDS011;8700;48.222;16.342;2023-12-07T13:09:08;24.17;;;21.73;;
17169;SDS011;8700;48.222;16.342;2023-12-07T13:12:29;17.30;;;15.27;;
17169;SDS011;8700;48.222;16.342;2023-12-07T13:15:53;17.53;;;15.80;;
17169;SDS011;8700;48.222;16.342;2023-12-07T13:19:15;21.67;;;19.40;;
17169;SDS011;8700;48.222;16.342;2023-12-07T13:22:36;19.97;;;16.53;;
17169;SDS011;8700;48.222;16.342;2023-12-07T13:25:59;15.63;;;13.97;;
17169;SDS011;8700;48.222;16.342;2023-12-07T13:29:21;18.30;;;16.13;;
17169;SDS011;8700;48.222;16.342;2023-12-07T13:32:42;17.43;;;15.30;;
17169;SDS011;8700;48.222;16.342;2023-12-07T13:36:03;20.80;;;18.60;;
17169;SDS011;8700;48.222;16.342;2023-12-07T13:39:25;18.50;;;16.60;;
17169;SDS011;8700;48.222;16.342;2023-12-07T13:42:48;18.83;;;15.73;;
17169;SDS011;8700;48.222;16.342;2023-12-07T13:46:09;18.40;;;15.67;;
17169;SDS011;8700;48.222;16.342;2023-12-07T13:49:31;19.80;;;17.80;;
17169;SDS011;8700;48.222;16.342;2023-12-07T13:52:52;21.23;;;15.93;;
17169;SDS011;8700;48.222;16.342;2023-12-07T13:56:13;18.73;;;15.83;;
17169;SDS011;8700;48.222;16.342;2023-12-07T13:59:37;22.87;;;19.40;;
17169;SDS011;8700;48.222;16.342;2023-12-07T14:02:59;21.50;;;19.27;;
17169;SDS011;8700;48.222;16.342;2023-12-07T14:06:23;18.17;;;16.27;;
17169;SDS011;8700;48.222;16.342;2023-12-07T14:09:45;17.27;;;13.70;;
17169;SDS011;8700;48.222;16.342;2023-12-07T14:13:08;18.93;;;16.33;;
17169;SDS011;8700;48.222;16.342;2023-12-07T14:16:30;19.37;;;17.27;;
17169;SDS011;8700;48.222;16.342;2023-12-07T14:19:52;21.03;;;17.00;;
17169;SDS011;8700;48.222;16.342;2023-12-07T14:23:13;20.17;;;18.10;;
17169;SDS011;8700;48.222;16.342;2023-12-07T14:26:35;20.43;;;18.10;;
17169;SDS011;8700;48.222;16.342;2023-12-07T14:29:56;21.37;;;19.07;;
17169;SDS011;8700;48.222;16.342;2023-12-07T14:33:18;21.73;;;18.50;;
17169;SDS011;8700;48.222;16.342;2023-12-07T14:36:39;20.50;;;18.40;;
17169;SDS011;8700;48.222;16.342;2023-12-07T14:40:03;22.87;;;19.97;;
17169;SDS011;8700;48.222;16.342;2023-12-07T14:43:25;20.77;;;18.67;;
17169;SDS011;8700;48.222;16.342;2023-12-07T14:46:47;25.13;;;22.47;;
17169;SDS011;8700;48.222;16.342;2023-12-07T14:50:10;21.93;;;19.33;;
17169;SDS011;8700;48.222;16.342;2023-12-07T14:53:31;23.87;;;21.30;;
17169;SDS011;8700;48.222;16.342;2023-12-07T14:56:53;23.77;;;20.30;;
17169;SDS011;8700;48.222;16.342;2023-12-07T15:00:16;22.17;;;19.77;;
17169;SDS011;8700;48.222;16.342;2023-12-07T15:03:38;26.20;;;21.93;;
17169;SDS011;8700;48.222;16.342;2023-12-07T15:07:01;30.07;;;24.77;;
17169;SDS011;8700;48.222;16.342;2023-12-07T15:10:24;26.93;;;24.03;;
17169;SDS011;8700;48.222;16.342;2023-12-07T15:13:45;29.40;;;25.43;;
17169;SDS011;8700;48.222;16.342;2023-12-07T15:17:07;24.90;;;22.30;;
17169;SDS011;8700;48.222;16.342;2023-12-07T15:20:28;27.87;;;23.97;;
17169;SDS011;8700;48.222;16.342;2023-12-07T15:23:51;26.27;;;23.00;;
17169;SDS011;8700;48.222;16.342;2023-12-07T15:27:12;29.40;;;24.47;;
17169;SDS011;8700;48.222;16.342;2023-12-07T15:30:33;30.30;;;23.57;;
17169;SDS011;8700;48.222;16.342;2023-12-07T15:33:54;29.23;;;24.27;;
17169;SDS011;8700;48.222;16.342;2023-12-07T15:37:15;31.03;;;26.13;;
17169;SDS011;8700;48.222;16.342;2023-12-07T15:40:38;32.10;;;26.47;;
17169;SDS011;8700;48.222;16.342;2023-12-07T15:44:00;31.63;;;25.93;;
17169;SDS011;8700;48.222;16.342;2023-12-07T15:47:21;32.77;;;26.70;;
17169;SDS011;8700;48.222;16.342;2023-12-07T15:50:42;30.07;;;23.07;;
17169;SDS011;8700;48.222;16.342;2023-12-07T15:54:03;30.67;;;24.07;;
17169;SDS011;8700;48.222;16.342;2023-12-07T15:57:25;28.03;;;23.93;;
17169;SDS011;8700;48.222;16.342;2023-12-07T16:00:46;26.93;;;23.23;;
17169;SDS011;8700;48.222;16.342;2023-12-07T16:04:09;26.80;;;22.37;;
17169;SDS011;8700;48.222;16.342;2023-12-07T16:07:31;32.87;;;24.97;;
17169;SDS011;8700;48.222;16.342;2023-12-07T16:10:52;65.37;;;49.40;;
17169;SDS011;8700;48.222;16.342;2023-12-07T16:14:15;26.63;;;22.57;;
17169;SDS011;8700;48.222;16.342;2023-12-07T16:17:36;23.87;;;20.20;;
17169;SDS011;8700;48.222;16.342;2023-12-07T16:20:57;25.23;;;20.97;;
17169;SDS011;8700;48.222;16.342;2023-12-07T16:24:18;26.47;;;22.63;;
17169;SDS011;8700;48.222;16.342;2023-12-07T16:27:40;24.93;;;21.37;;
17169;SDS011;8700;48.222;16.342;2023-12-07T16:31:02;25.57;;;22.37;;
17169;SDS011;8700;48.222;16.342;2023-12-07T16:34:26;26.50;;;21.60;;
17169;SDS011;8700;48.222;16.342;2023-12-07T16:37:47;26.80;;;22.73;;
17169;SDS011;8700;48.222;16.342;2023-12-07T16:41:08;26.20;;;21.17;;
17169;SDS011;8700;48.222;16.342;2023-12-07T16:44:29;27.57;;;24.57;;
17169;SDS011;8700;48.222;16.342;2023-12-07T16:47:52;24.53;;;21.87;;
17169;SDS011;8700;48.222;16.342;2023-12-07T16:51:13;22.13;;;19.93;;
17169;SDS011;8700;48.222;16.342;2023-12-07T16:54:34;22.17;;;19.33;;
17169;SDS011;8700;48.222;16.342;2023-12-07T16:57:55;25.73;;;23.00;;
17169;SDS011;8700;48.222;16.342;2023-12-07T17:01:18;20.17;;;18.17;;
17169;SDS011;8700;48.222;16.342;2023-12-07T17:04:41;21.70;;;18.10;;
17169;SDS011;8700;48.222;16.342;2023-12-07T17:08:02;26.60;;;19.33;;
17169;SDS011;8700;48.222;16.342;2023-12-07T17:11:23;23.60;;;19.47;;
17169;SDS011;8700;48.222;16.342;2023-12-07T17:14:44;22.53;;;19.67;;
17169;SDS011;8700;48.222;16.342;2023-12-07T17:18:05;21.00;;;18.47;;
17169;SDS011;8700;48.222;16.342;2023-12-07T17:21:27;23.20;;;18.33;;
17169;SDS011;8700;48.222;16.342;2023-12-07T17:24:49;28.77;;;23.70;;
17169;SDS011;8700;48.222;16.342;2023-12-07T17:28:10;22.33;;;19.77;;
17169;SDS011;8700;48.222;16.342;2023-12-07T17:31:31;23.33;;;19.77;;
17169;SDS011;8700;48.222;16.342;2023-12-07T17:34:52;21.77;;;19.10;;
17169;SDS011;8700;48.222;16.342;2023-12-07T17:38:14;25.60;;;22.30;;
17169;SDS011;8700;48.222;16.342;2023-12-07T17:41:35;22.57;;;20.07;;
17169;SDS011;8700;48.222;16.342;2023-12-07T17:44:56;23.63;;;20.83;;
17169;SDS011;8700;48.222;16.342;2023-12-07T17:48:18;23.87;;;19.10;;
17169;SDS011;8700;48.222;16.342;2023-12-07T17:51:39;27.00;;;21.93;;
17169;SDS011;8700;48.222;16.342;2023-12-07T17:55:01;23.67;;;19.90;;
17169;SDS011;8700;48.222;16.342;2023-12-07T17:58:22;25.80;;;21.63;;
17169;SDS011;8700;48.222;16.342;2023-12-07T18:01:44;25.37;;;21.13;;
17169;SDS011;8700;48.222;16.342;2023-12-07T18:05:06;21.87;;;19.37;;
17169;SDS011;8700;48.222;16.342;2023-12-07T18:08:27;27.77;;;23.57;;
17169;SDS011;8700;48.222;16.342;2023-12-07T18:11:49;24.07;;;21.27;;
17169;SDS011;8700;48.222;16.342;2023-12-07T18:15:11;25.73;;;19.87;;
17169;SDS011;8700;48.222;16.342;2023-12-07T18:18:34;30.40;;;27.30;;
17169;SDS011;8700;48.222;16.342;2023-12-07T18:21:55;23.93;;;19.93;;
17169;SDS011;8700;48.222;16.342;2023-12-07T18:25:16;24.63;;;22.03;;
17169;SDS011;8700;48.222;16.342;2023-12-07T18:28:39;21.43;;;19.10;;
17169;SDS011;8700;48.222;16.342;2023-12-07T18:32:01;21.83;;;19.00;;
17169;SDS011;8700;48.222;16.342;2023-12-07T18:35:22;21.47;;;18.67;;
17169;SDS011;8700;48.222;16.342;2023-12-07T18:38:44;26.63;;;21.37;;
17169;SDS011;8700;48.222;16.342;2023-12-07T18:42:05;27.77;;;20.17;;
17169;SDS011;8700;48.222;16.342;2023-12-07T18:45:28;25.50;;;22.50;;
17169;SDS011;8700;48.222;16.342;2023-12-07T18:48:50;29.67;;;25.30;;
17169;SDS011;8700;48.222;16.342;2023-12-07T18:52:11;25.83;;;23.07;;
17169;SDS011;8700;48.222;16.342;2023-12-07T18:55:32;37.63;;;27.73;;
17169;SDS011;8700;48.222;16.342;2023-12-07T18:58:53;26.60;;;21.20;;
17169;SDS011;8700;48.222;16.342;2023-12-07T19:02:18;27.03;;;22.83;;
17169;SDS011;8700;48.222;16.342;2023-12-07T19:05:39;24.03;;;20.37;;
17169;SDS011;8700;48.222;16.342;2023-12-07T19:09:02;25.77;;;21.63;;
17169;SDS011;8700;48.222;16.342;2023-12-07T19:12:25;26.40;;;23.10;;
17169;SDS011;8700;48.222;16.342;2023-12-07T19:15:46;28.03;;;24.53;;
17169;SDS011;8700;48.222;16.342;2023-12-07T19:19:10;27.60;;;21.63;;
17169;SDS011;8700;48.222;16.342;2023-12-07T19:22:31;33.10;;;26.20;;
17169;SDS011;8700;48.222;16.342;2023-12-07T19:25:52;32.20;;;24.10;;
17169;SDS011;8700;48.222;16.342;2023-12-07T19:29:13;28.53;;;24.50;;
17169;SDS011;8700;48.222;16.342;2023-12-07T19:32:34;31.67;;;26.40;;
17169;SDS011;8700;48.222;16.342;2023-12-07T19:35:57;38.47;;;30.43;;
17169;SDS011;8700;48.222;16.342;2023-12-07T19:39:18;36.80;;;28.57;;
17169;SDS011;8700;48.222;16.342;2023-12-07T19:42:39;28.80;;;25.00;;
17169;SDS011;8700;48.222;16.342;2023-12-07T19:46:00;29.97;;;24.23;;